Volokolamsk, Russia
Current Conditions -  °F | °C
As of 5:00 PM on Thursday 23 Oct 2014 (Local Time) from UUEE Reporting Station
Scattered Clouds Scattered Clouds  
Wind Chill:   Ceiling: Unl
Heat Index: 19°   Visibility: 6mi
Dew Point: 10°   Wind: 11mph
Humidity: 68%   Direction: 320°NW
Pressure: 30.36"   Gusts: NA
Location:  56.03°N, 35.97°E
Report Text: UUEE 231400Z 32005MPS 9999 SCT026 M07/M12 Q1028 7541016225410151 NOSIG
Loading
Personal Weather Stations






























Interactive Weather Map
Tropical Storm Tracking
New forecast layout! Learn more

10-Day Weather Forecast

Advertisements
Track Severe Weather on mobile